sensor_id;sensor_type;location;lat;lon;timestamp;temperature;humidity
5492;DHT22;2768;53.540;10.224;2023-02-23T00:03:56;9.40;1.00
5492;DHT22;2768;53.540;10.224;2023-02-23T00:09:51;9.30;1.00
5492;DHT22;2768;53.540;10.224;2023-02-23T00:15:44;9.30;1.00
5492;DHT22;2768;53.540;10.224;2023-02-23T00:21:38;9.30;1.00
5492;DHT22;2768;53.540;10.224;2023-02-23T00:27:33;9.30;1.00
5492;DHT22;2768;53.540;10.224;2023-02-23T00:33:27;9.20;1.00
5492;DHT22;2768;53.540;10.224;2023-02-23T00:39:23;9.30;1.00
5492;DHT22;2768;53.540;10.224;2023-02-23T00:45:21;9.30;1.00
5492;DHT22;2768;53.540;10.224;2023-02-23T00:51:17;9.30;1.00
5492;DHT22;2768;53.540;10.224;2023-02-23T00:57:11;9.20;1.00
5492;DHT22;2768;53.540;10.224;2023-02-23T01:03:07;9.20;1.00
5492;DHT22;2768;53.540;10.224;2023-02-23T01:09:00;9.20;1.00
5492;DHT22;2768;53.540;10.224;2023-02-23T01:14:58;9.20;1.00
5492;DHT22;2768;53.540;10.224;2023-02-23T01:20:57;9.20;1.00
5492;DHT22;2768;53.540;10.224;2023-02-23T01:26:50;9.10;1.00
5492;DHT22;2768;53.540;10.224;2023-02-23T01:32:44;9.20;1.00
5492;DHT22;2768;53.540;10.224;2023-02-23T01:38:39;9.20;1.00
5492;DHT22;2768;53.540;10.224;2023-02-23T01:51:17;9.20;1.00
5492;DHT22;2768;53.540;10.224;2023-02-23T01:57:17;9.20;1.00
5492;DHT22;2768;53.540;10.224;2023-02-23T02:03:15;9.20;1.00
5492;DHT22;2768;53.540;10.224;2023-02-23T02:09:15;9.20;1.00
5492;DHT22;2768;53.540;10.224;2023-02-23T02:15:12;9.20;1.00
5492;DHT22;2768;53.540;10.224;2023-02-23T02:21:28;9.10;1.00
5492;DHT22;2768;53.540;10.224;2023-02-23T02:27:44;9.10;1.00
5492;DHT22;2768;53.540;10.224;2023-02-23T02:40:16;9.10;1.00
5492;DHT22;2768;53.540;10.224;2023-02-23T02:46:14;9.20;1.00
5492;DHT22;2768;53.540;10.224;2023-02-23T02:52:12;9.10;1.00
5492;DHT22;2768;53.540;10.224;2023-02-23T02:58:10;9.00;1.00
5492;DHT22;2768;53.540;10.224;2023-02-23T03:04:19;9.10;1.00
5492;DHT22;2768;53.540;10.224;2023-02-23T03:10:35;9.00;1.00
5492;DHT22;2768;53.540;10.224;2023-02-23T03:16:54;9.00;1.00
5492;DHT22;2768;53.540;10.224;2023-02-23T03:23:16;9.00;1.00
5492;DHT22;2768;53.540;10.224;2023-02-23T03:29:34;9.00;1.00
5492;DHT22;2768;53.540;10.224;2023-02-23T03:35:53;8.90;1.00
5492;DHT22;2768;53.540;10.224;2023-02-23T03:42:10;8.90;1.00
5492;DHT22;2768;53.540;10.224;2023-02-23T03:48:23;8.80;1.00
5492;DHT22;2768;53.540;10.224;2023-02-23T03:54:39;8.90;1.00
5492;DHT22;2768;53.540;10.224;2023-02-23T04:00:52;9.00;1.00
5492;DHT22;2768;53.540;10.224;2023-02-23T04:07:06;8.90;1.00
5492;DHT22;2768;53.540;10.224;2023-02-23T04:13:22;9.00;1.00
5492;DHT22;2768;53.540;10.224;2023-02-23T04:19:18;9.00;1.00
5492;DHT22;2768;53.540;10.224;2023-02-23T04:25:12;9.00;1.00
5492;DHT22;2768;53.540;10.224;2023-02-23T04:31:09;9.00;1.00
5492;DHT22;2768;53.540;10.224;2023-02-23T04:37:02;9.00;1.00
5492;DHT22;2768;53.540;10.224;2023-02-23T04:42:56;9.10;1.00
5492;DHT22;2768;53.540;10.224;2023-02-23T04:48:50;8.90;1.00
5492;DHT22;2768;53.540;10.224;2023-02-23T04:54:43;8.90;1.00
5492;DHT22;2768;53.540;10.224;2023-02-23T05:00:36;8.90;1.00
5492;DHT22;2768;53.540;10.224;2023-02-23T05:06:31;8.90;1.00
5492;DHT22;2768;53.540;10.224;2023-02-23T05:12:25;8.90;1.00
5492;DHT22;2768;53.540;10.224;2023-02-23T05:18:18;8.90;1.00
5492;DHT22;2768;53.540;10.224;2023-02-23T05:24:13;9.10;1.00
5492;DHT22;2768;53.540;10.224;2023-02-23T05:30:08;9.00;1.00
5492;DHT22;2768;53.540;10.224;2023-02-23T05:36:04;9.00;1.00
5492;DHT22;2768;53.540;10.224;2023-02-23T05:41:58;8.90;1.00
5492;DHT22;2768;53.540;10.224;2023-02-23T05:47:52;8.90;1.00
5492;DHT22;2768;53.540;10.224;2023-02-23T05:53:45;9.00;1.00
5492;DHT22;2768;53.540;10.224;2023-02-23T05:59:40;9.00;1.00
5492;DHT22;2768;53.540;10.224;2023-02-23T06:05:34;9.00;1.00
5492;DHT22;2768;53.540;10.224;2023-02-23T06:11:28;8.90;1.00
5492;DHT22;2768;53.540;10.224;2023-02-23T06:17:22;8.90;1.00
5492;DHT22;2768;53.540;10.224;2023-02-23T06:23:16;8.80;1.00
5492;DHT22;2768;53.540;10.224;2023-02-23T06:29:10;8.80;1.00
5492;DHT22;2768;53.540;10.224;2023-02-23T06:35:06;8.70;1.00
5492;DHT22;2768;53.540;10.224;2023-02-23T06:41:06;8.80;1.00
5492;DHT22;2768;53.540;10.224;2023-02-23T06:46:59;8.70;1.00
5492;DHT22;2768;53.540;10.224;2023-02-23T06:52:54;8.70;1.00
5492;DHT22;2768;53.540;10.224;2023-02-23T06:58:49;8.70;1.00
5492;DHT22;2768;53.540;10.224;2023-02-23T07:04:45;8.70;1.00
5492;DHT22;2768;53.540;10.224;2023-02-23T07:10:40;8.60;1.00
5492;DHT22;2768;53.540;10.224;2023-02-23T07:16:33;8.70;1.00
5492;DHT22;2768;53.540;10.224;2023-02-23T07:22:27;8.70;1.00
5492;DHT22;2768;53.540;10.224;2023-02-23T07:28:23;8.70;1.00
5492;DHT22;2768;53.540;10.224;2023-02-23T07:34:16;8.60;1.00
5492;DHT22;2768;53.540;10.224;2023-02-23T07:40:10;8.50;1.00
5492;DHT22;2768;53.540;10.224;2023-02-23T07:46:06;8.50;1.00
5492;DHT22;2768;53.540;10.224;2023-02-23T07:51:59;8.60;5.40
5492;DHT22;2768;53.540;10.224;2023-02-23T07:57:52;8.60;13.20
5492;DHT22;2768;53.540;10.224;2023-02-23T08:10:13;8.70;13.60
5492;DHT22;2768;53.540;10.224;2023-02-23T08:16:07;8.70;9.40
5492;DHT22;2768;53.540;10.224;2023-02-23T08:22:06;8.70;13.20
5492;DHT22;2768;53.540;10.224;2023-02-23T08:28:03;8.40;14.50
5492;DHT22;2768;53.540;10.224;2023-02-23T08:33:57;8.50;36.30
5492;DHT22;2768;53.540;10.224;2023-02-23T08:39:50;8.40;46.50
5492;DHT22;2768;53.540;10.224;2023-02-23T08:45:45;8.40;54.30
5492;DHT22;2768;53.540;10.224;2023-02-23T08:51:41;8.40;70.90
5492;DHT22;2768;53.540;10.224;2023-02-23T08:57:35;8.40;90.00
5492;DHT22;2768;53.540;10.224;2023-02-23T09:03:30;8.50;97.10
5492;DHT22;2768;53.540;10.224;2023-02-23T09:09:26;8.40;99.50
5492;DHT22;2768;53.540;10.224;2023-02-23T09:15:20;8.50;99.90
5492;DHT22;2768;53.540;10.224;2023-02-23T09:21:17;8.50;99.90
5492;DHT22;2768;53.540;10.224;2023-02-23T09:27:12;8.60;99.90
5492;DHT22;2768;53.540;10.224;2023-02-23T09:33:05;8.60;99.90
5492;DHT22;2768;53.540;10.224;2023-02-23T09:45:27;8.60;99.90
5492;DHT22;2768;53.540;10.224;2023-02-23T09:51:22;8.60;99.90
5492;DHT22;2768;53.540;10.224;2023-02-23T09:57:18;8.50;99.90
5492;DHT22;2768;53.540;10.224;2023-02-23T10:03:21;8.30;99.90
5492;DHT22;2768;53.540;10.224;2023-02-23T10:09:24;8.30;99.90
5492;DHT22;2768;53.540;10.224;2023-02-23T10:15:26;8.40;99.90
5492;DHT22;2768;53.540;10.224;2023-02-23T10:21:29;8.30;93.80
5492;DHT22;2768;53.540;10.224;2023-02-23T10:27:36;8.30;89.90
5492;DHT22;2768;53.540;10.224;2023-02-23T10:33:33;8.30;84.40
5492;DHT22;2768;53.540;10.224;2023-02-23T10:39:30;8.30;80.70
5492;DHT22;2768;53.540;10.224;2023-02-23T10:45:25;8.20;76.30
5492;DHT22;2768;53.540;10.224;2023-02-23T10:51:24;8.40;65.50
5492;DHT22;2768;53.540;10.224;2023-02-23T10:57:22;8.60;44.90
5492;DHT22;2768;53.540;10.224;2023-02-23T11:03:20;8.60;12.10
5492;DHT22;2768;53.540;10.224;2023-02-23T11:09:26;8.50;1.00
5492;DHT22;2768;53.540;10.224;2023-02-23T11:15:39;8.50;1.00
5492;DHT22;2768;53.540;10.224;2023-02-23T11:21:49;8.40;1.00
5492;DHT22;2768;53.540;10.224;2023-02-23T11:27:48;8.40;1.00
5492;DHT22;2768;53.540;10.224;2023-02-23T11:33:45;8.30;1.00
5492;DHT22;2768;53.540;10.224;2023-02-23T11:39:50;8.20;1.00
5492;DHT22;2768;53.540;10.224;2023-02-23T11:45:45;8.20;1.00
5492;DHT22;2768;53.540;10.224;2023-02-23T11:51:46;8.10;1.00
5492;DHT22;2768;53.540;10.224;2023-02-23T11:57:40;8.20;1.00
5492;DHT22;2768;53.540;10.224;2023-02-23T12:03:34;8.20;1.00
5492;DHT22;2768;53.540;10.224;2023-02-23T12:09:31;8.40;1.00
5492;DHT22;2768;53.540;10.224;2023-02-23T12:15:33;8.50;1.00
5492;DHT22;2768;53.540;10.224;2023-02-23T12:21:31;8.50;1.00
5492;DHT22;2768;53.540;10.224;2023-02-23T12:27:32;8.60;1.00
5492;DHT22;2768;53.540;10.224;2023-02-23T12:33:30;8.70;1.00
5492;DHT22;2768;53.540;10.224;2023-02-23T12:39:29;8.80;1.00
5492;DHT22;2768;53.540;10.224;2023-02-23T12:45:30;8.70;1.00
5492;DHT22;2768;53.540;10.224;2023-02-23T12:51:29;8.60;1.00
5492;DHT22;2768;53.540;10.224;2023-02-23T12:57:31;8.70;1.00
5492;DHT22;2768;53.540;10.224;2023-02-23T13:03:54;8.70;1.00
5492;DHT22;2768;53.540;10.224;2023-02-23T13:10:02;8.70;1.00
5492;DHT22;2768;53.540;10.224;2023-02-23T13:16:01;8.70;1.00
5492;DHT22;2768;53.540;10.224;2023-02-23T13:22:03;8.80;1.00
5492;DHT22;2768;53.540;10.224;2023-02-23T13:28:01;8.50;1.00
5492;DHT22;2768;53.540;10.224;2023-02-23T13:33:57;8.60;1.00
5492;DHT22;2768;53.540;10.224;2023-02-23T13:39:58;8.60;1.00
5492;DHT22;2768;53.540;10.224;2023-02-23T13:46:01;8.60;1.00
5492;DHT22;2768;53.540;10.224;2023-02-23T13:51:58;8.50;1.00
5492;DHT22;2768;53.540;10.224;2023-02-23T13:57:55;8.40;1.00
5492;DHT22;2768;53.540;10.224;2023-02-23T14:03:56;8.50;1.00
5492;DHT22;2768;53.540;10.224;2023-02-23T14:09:53;8.60;1.00
5492;DHT22;2768;53.540;10.224;2023-02-23T14:15:49;8.60;1.00
5492;DHT22;2768;53.540;10.224;2023-02-23T14:22:03;8.60;1.00
5492;DHT22;2768;53.540;10.224;2023-02-23T14:27:58;8.60;1.00
5492;DHT22;2768;53.540;10.224;2023-02-23T14:33:59;8.70;1.00
5492;DHT22;2768;53.540;10.224;2023-02-23T14:39:58;8.60;1.00
5492;DHT22;2768;53.540;10.224;2023-02-23T14:45:53;8.60;1.00
5492;DHT22;2768;53.540;10.224;2023-02-23T14:51:50;8.60;1.00
5492;DHT22;2768;53.540;10.224;2023-02-23T14:57:44;8.60;1.00
5492;DHT22;2768;53.540;10.224;2023-02-23T15:03:38;8.60;1.00
5492;DHT22;2768;53.540;10.224;2023-02-23T15:09:36;8.70;1.00
5492;DHT22;2768;53.540;10.224;2023-02-23T15:15:30;8.70;1.00
5492;DHT22;2768;53.540;10.224;2023-02-23T15:21:23;8.80;1.00
5492;DHT22;2768;53.540;10.224;2023-02-23T15:27:21;8.70;1.00
5492;DHT22;2768;53.540;10.224;2023-02-23T15:33:18;8.70;1.00
5492;DHT22;2768;53.540;10.224;2023-02-23T15:39:17;8.70;1.00
5492;DHT22;2768;53.540;10.224;2023-02-23T15:45:18;8.70;1.00
5492;DHT22;2768;53.540;10.224;2023-02-23T15:51:21;8.70;1.00
5492;DHT22;2768;53.540;10.224;2023-02-23T15:57:18;8.80;1.00
5492;DHT22;2768;53.540;10.224;2023-02-23T16:03:23;8.60;1.00
5492;DHT22;2768;53.540;10.224;2023-02-23T16:09:26;8.60;1.00
5492;DHT22;2768;53.540;10.224;2023-02-23T16:15:23;8.60;1.00
5492;DHT22;2768;53.540;10.224;2023-02-23T16:21:21;8.50;1.00
5492;DHT22;2768;53.540;10.224;2023-02-23T16:27:15;8.50;1.00
5492;DHT22;2768;53.540;10.224;2023-02-23T16:33:13;8.40;1.00
5492;DHT22;2768;53.540;10.224;2023-02-23T16:39:12;8.20;1.00
5492;DHT22;2768;53.540;10.224;2023-02-23T16:45:13;8.20;1.00
5492;DHT22;2768;53.540;10.224;2023-02-23T16:51:12;8.20;1.00
5492;DHT22;2768;53.540;10.224;2023-02-23T16:57:17;8.30;1.00
5492;DHT22;2768;53.540;10.224;2023-02-23T17:03:16;8.10;1.00
5492;DHT22;2768;53.540;10.224;2023-02-23T17:09:11;8.00;1.00
5492;DHT22;2768;53.540;10.224;2023-02-23T17:15:13;8.00;1.00
5492;DHT22;2768;53.540;10.224;2023-02-23T17:21:11;7.90;1.00
5492;DHT22;2768;53.540;10.224;2023-02-23T17:27:04;7.60;1.00
5492;DHT22;2768;53.540;10.224;2023-02-23T17:33:00;7.60;1.00
5492;DHT22;2768;53.540;10.224;2023-02-23T17:38:53;7.60;1.00
5492;DHT22;2768;53.540;10.224;2023-02-23T17:44:49;7.50;1.00
5492;DHT22;2768;53.540;10.224;2023-02-23T17:50:45;7.30;1.00
5492;DHT22;2768;53.540;10.224;2023-02-23T17:56:38;7.30;1.00
5492;DHT22;2768;53.540;10.224;2023-02-23T18:02:32;7.20;1.00
5492;DHT22;2768;53.540;10.224;2023-02-23T18:08:27;7.30;1.00
5492;DHT22;2768;53.540;10.224;2023-02-23T18:14:20;7.20;99.90
5492;DHT22;2768;53.540;10.224;2023-02-23T18:20:14;7.30;99.90
5492;DHT22;2768;53.540;10.224;2023-02-23T18:26:10;7.10;99.90
5492;DHT22;2768;53.540;10.224;2023-02-23T18:32:06;7.20;99.90
5492;DHT22;2768;53.540;10.224;2023-02-23T18:37:59;7.20;99.90
5492;DHT22;2768;53.540;10.224;2023-02-23T18:43:54;7.30;99.90
5492;DHT22;2768;53.540;10.224;2023-02-23T18:49:47;7.10;99.90
5492;DHT22;2768;53.540;10.224;2023-02-23T18:55:41;7.20;99.90
5492;DHT22;2768;53.540;10.224;2023-02-23T19:01:37;6.90;99.90
5492;DHT22;2768;53.540;10.224;2023-02-23T19:07:31;6.70;99.90
5492;DHT22;2768;53.540;10.224;2023-02-23T19:13:24;6.60;99.90
5492;DHT22;2768;53.540;10.224;2023-02-23T19:19:19;6.40;99.90
5492;DHT22;2768;53.540;10.224;2023-02-23T19:25:12;6.30;99.90
5492;DHT22;2768;53.540;10.224;2023-02-23T19:31:08;6.40;99.90
5492;DHT22;2768;53.540;10.224;2023-02-23T19:37:04;6.40;99.90
5492;DHT22;2768;53.540;10.224;2023-02-23T19:42:57;6.30;99.90
5492;DHT22;2768;53.540;10.224;2023-02-23T19:48:51;6.20;99.90
5492;DHT22;2768;53.540;10.224;2023-02-23T19:54:45;6.30;99.90
5492;DHT22;2768;53.540;10.224;2023-02-23T20:00:38;6.20;99.90
5492;DHT22;2768;53.540;10.224;2023-02-23T20:06:37;6.20;99.90
5492;DHT22;2768;53.540;10.224;2023-02-23T20:12:32;6.10;99.90
5492;DHT22;2768;53.540;10.224;2023-02-23T20:18:25;6.00;99.90
5492;DHT22;2768;53.540;10.224;2023-02-23T20:24:19;6.10;99.90
5492;DHT22;2768;53.540;10.224;2023-02-23T20:30:14;6.00;99.90
5492;DHT22;2768;53.540;10.224;2023-02-23T20:36:08;5.90;99.90
5492;DHT22;2768;53.540;10.224;2023-02-23T20:42:03;6.00;99.90
5492;DHT22;2768;53.540;10.224;2023-02-23T20:47:57;5.90;99.90
5492;DHT22;2768;53.540;10.224;2023-02-23T20:53:50;5.90;99.90
5492;DHT22;2768;53.540;10.224;2023-02-23T20:59:43;6.00;99.90
5492;DHT22;2768;53.540;10.224;2023-02-23T21:05:38;5.90;99.90
5492;DHT22;2768;53.540;10.224;2023-02-23T21:11:33;6.00;99.90
5492;DHT22;2768;53.540;10.224;2023-02-23T21:17:26;6.00;99.90
5492;DHT22;2768;53.540;10.224;2023-02-23T21:23:20;5.90;99.90
5492;DHT22;2768;53.540;10.224;2023-02-23T21:29:14;5.90;99.90
5492;DHT22;2768;53.540;10.224;2023-02-23T21:35:08;6.00;99.90
5492;DHT22;2768;53.540;10.224;2023-02-23T21:41:04;6.10;99.90
5492;DHT22;2768;53.540;10.224;2023-02-23T21:46:58;5.90;99.90
5492;DHT22;2768;53.540;10.224;2023-02-23T21:52:55;5.90;99.90
5492;DHT22;2768;53.540;10.224;2023-02-23T21:58:52;5.90;99.90
5492;DHT22;2768;53.540;10.224;2023-02-23T22:04:45;5.90;99.90
5492;DHT22;2768;53.540;10.224;2023-02-23T22:10:38;5.90;99.90
5492;DHT22;2768;53.540;10.224;2023-02-23T22:16:35;5.80;99.90
5492;DHT22;2768;53.540;10.224;2023-02-23T22:22:28;5.70;99.90
5492;DHT22;2768;53.540;10.224;2023-02-23T22:28:27;5.90;99.90
5492;DHT22;2768;53.540;10.224;2023-02-23T22:34:22;6.00;99.90
5492;DHT22;2768;53.540;10.224;2023-02-23T22:40:16;5.90;99.90
5492;DHT22;2768;53.540;10.224;2023-02-23T22:46:10;5.50;99.90
5492;DHT22;2768;53.540;10.224;2023-02-23T22:52:05;5.60;99.90
5492;DHT22;2768;53.540;10.224;2023-02-23T22:57:58;5.60;99.90
5492;DHT22;2768;53.540;10.224;2023-02-23T23:03:52;5.70;99.90
5492;DHT22;2768;53.540;10.224;2023-02-23T23:09:47;5.70;99.90
5492;DHT22;2768;53.540;10.224;2023-02-23T23:15:40;5.80;99.90
5492;DHT22;2768;53.540;10.224;2023-02-23T23:21:34;5.80;99.90
5492;DHT22;2768;53.540;10.224;2023-02-23T23:27:28;5.80;99.90
5492;DHT22;2768;53.540;10.224;2023-02-23T23:33:24;5.60;99.90
5492;DHT22;2768;53.540;10.224;2023-02-23T23:39:19;5.80;99.90
5492;DHT22;2768;53.540;10.224;2023-02-23T23:45:16;5.80;99.90
5492;DHT22;2768;53.540;10.224;2023-02-23T23:51:09;5.80;99.90
5492;DHT22;2768;53.540;10.224;2023-02-23T23:57:04;5.80;99.90
